Time;durP1;ratioP1;P1;durP2;ratioP2;P2;SDS_P1;SDS_P2;PMS_P1;PMS_P2;Temp;Humidity;BMP_temperature;BMP_pressure;BME280_temperature;BME280_humidity;BME280_pressure;Samples;Min_cycle;Max_cycle;Signal;HPM_P1;HPM_P2
2022/04/03 00:00:50;;;;;;;12.27;8.20;;;;;;;;;;5012556;28;20448;-89
2022/04/03 00:03:20;;;;;;;10.33;8.17;;;0.40;99.90;;;;;;5014073;28;20535;-90
2022/04/03 00:05:47;;;;;;;10.27;8.03;;;;;;;;;;5009736;28;20821;-90
2022/04/03 00:08:15;;;;;;;11.40;8.50;;;;;;;;;;5014556;28;20456;-87
2022/04/03 00:10:46;;;;;;;10.10;8.20;;;0.30;99.90;;;;;;5014264;28;20459;-88
2022/04/03 00:13:13;;;;;;;10.77;8.43;;;;;;;;;;5014788;28;20508;-87
2022/04/03 00:15:42;;;;;;;13.87;8.50;;;;;;;;;;5014228;28;20456;-89
2022/04/03 00:18:10;;;;;;;14.00;10.10;;;;;;;;;;5014741;28;20448;-87
2022/04/03 00:20:37;;;;;;;11.57;9.20;;;;;;;;;;5017011;28;20447;-94
2022/04/03 00:23:08;;;;;;;11.67;8.90;;;0.20;99.90;;;;;;5018775;28;20452;-89
2022/04/03 00:25:35;;;;;;;15.03;9.90;;;;;;;;;;5020021;28;20454;-89
2022/04/03 00:28:04;;;;;;;13.50;9.53;;;0.20;99.90;;;;;;5021056;28;20456;-87
2022/04/03 00:30:32;;;;;;;11.80;9.20;;;;;;;;;;5018206;28;20456;-90
2022/04/03 00:32:59;;;;;;;11.50;8.80;;;;;;;;;;5019588;28;20490;-89
2022/04/03 00:35:26;;;;;;;10.83;8.60;;;;;;;;;;5021542;28;20983;-92
2022/04/03 00:37:53;;;;;;;12.83;8.80;;;;;;;;;;5025148;28;20460;-94
2022/04/03 00:40:23;;;;;;;11.00;8.87;;;;;;;;;;5021797;28;20449;-89
2022/04/03 00:42:50;;;;;;;13.40;8.20;;;;;;;;;;5023285;28;20482;-89
2022/04/03 00:45:19;;;;;;;11.17;8.07;;;;;;;;;;5022544;28;20452;-90
2022/04/03 00:47:46;;;;;;;12.20;8.03;;;;;;;;;;5022269;28;20948;-87
2022/04/03 00:50:16;;;;;;;12.20;9.87;;;;;;;;;;5022499;28;20452;-88
2022/04/03 00:52:44;;;;;;;15.50;9.00;;;;;;;;;;5023303;28;20480;-89
2022/04/03 00:55:14;;;;;;;15.43;9.40;;;;;;;;;;5023065;28;20459;-89
2022/04/03 00:57:54;;;;;;;13.73;10.27;;;0.20;99.90;;;;;;5022427;28;20540;-89
2022/04/03 01:00:22;;;;;;;11.40;8.90;;;0.20;99.90;;;;;;5026709;28;20479;-88
2022/04/03 01:02:49;;;;;;;11.93;8.80;;;;;;;;;;5025033;28;20467;-89
2022/04/03 01:05:17;;;;;;;12.67;9.70;;;;;;;;;;5026344;28;20467;-88
2022/04/03 01:07:44;;;;;;;11.23;9.20;;;;;;;;;;5024139;28;20448;-88
2022/04/03 01:10:11;;;;;;;11.80;8.27;;;;;;;;;;5021653;28;20448;-89
2022/04/03 01:12:40;;;;;;;12.33;8.23;;;0.20;99.90;;;;;;5022913;28;20448;-89
2022/04/03 01:15:07;;;;;;;11.23;8.63;;;0.10;99.90;;;;;;5022302;28;20456;-89
2022/04/03 01:17:35;;;;;;;13.20;9.10;;;0.20;99.90;;;;;;5020069;28;20448;-87
2022/04/03 01:20:02;;;;;;;12.20;8.90;;;;;;;;;;5018129;28;20448;-91
2022/04/03 01:22:30;;;;;;;13.10;9.00;;;;;;;;;;5023158;28;20455;-93
2022/04/03 01:24:59;;;;;;;12.70;9.03;;;0.10;99.90;;;;;;5021739;28;20449;-86
2022/04/03 01:27:26;;;;;;;16.83;9.50;;;;;;;;;;5019327;28;20448;-88
2022/04/03 01:29:53;;;;;;;16.13;11.23;;;;;;;;;;5021006;28;20449;-92
2022/04/03 01:32:20;;;;;;;11.90;8.63;;;;;;;;;;5018381;28;20456;-87
2022/04/03 01:34:47;;;;;;;12.43;9.03;;;;;;;;;;5018431;28;20492;-92
2022/04/03 01:37:14;;;;;;;14.03;10.33;;;;;;;;;;5018854;28;20444;-86
2022/04/03 01:39:41;;;;;;;19.43;11.40;;;;;;;;;;5018528;28;20459;-91
2022/04/03 01:42:10;;;;;;;15.13;10.63;;;0.10;99.90;;;;;;5017241;28;20464;-86
2022/04/03 01:44:37;;;;;;;17.57;11.20;;;;;;;;;;5015702;28;20448;-86
2022/04/03 01:47:05;;;;;;;17.37;10.80;;;0.00;99.90;;;;;;5016166;28;20539;-86
2022/04/03 01:49:32;;;;;;;17.20;10.70;;;;;;;;;;5016103;28;20487;-92
2022/04/03 01:51:59;;;;;;;18.07;10.87;;;;;;;;;;5016525;28;20859;-86
2022/04/03 01:54:27;;;;;;;21.63;11.37;;;;;;;;;;5016304;28;20496;-86
2022/04/03 01:56:54;;;;;;;15.97;9.60;;;;;;;;;;5015677;28;20535;-86
2022/04/03 01:59:22;;;;;;;15.47;10.53;;;0.10;99.90;;;;;;5014282;28;20503;-87
2022/04/03 02:01:49;;;;;;;17.00;10.70;;;;;;;;;;5016775;28;20448;-89
2022/04/03 02:04:17;;;;;;;15.83;10.77;;;;;;;;;;5017168;28;20932;-90
2022/04/03 02:06:44;;;;;;;13.20;9.50;;;;;;;;;;5016716;28;20462;-87
2022/04/03 02:09:11;;;;;;;14.93;10.20;;;;;;;;;;5016821;28;20947;-93
2022/04/03 02:11:39;;;;;;;12.70;8.37;;;;;;;;;;5016547;28;20452;-87
2022/04/03 02:14:06;;;;;;;12.53;8.80;;;0.30;99.90;;;;;;5016809;28;20502;-87
2022/04/03 02:16:34;;;;;;;13.30;9.90;;;;;;;;;;5015244;28;20448;-87
2022/04/03 02:19:02;;;;;;;14.80;9.20;;;;;;;;;;5016033;28;20449;-88
2022/04/03 02:21:29;;;;;;;11.70;9.60;;;;;;;;;;5016011;28;20453;-88
2022/04/03 02:23:56;;;;;;;13.93;10.33;;;;;;;;;;5016023;28;20471;-88
2022/04/03 02:26:23;;;;;;;14.33;10.00;;;;;;;;;;5016218;28;20440;-88
2022/04/03 02:28:51;;;;;;;11.90;9.33;;;;;;;;;;5015367;28;20460;-88
2022/04/03 02:31:18;;;;;;;14.33;10.43;;;;;;;;;;5015205;28;20499;-87
2022/04/03 02:33:47;;;;;;;13.00;9.13;;;0.00;99.90;;;;;;5016080;28;20853;-90
2022/04/03 02:36:14;;;;;;;14.77;9.90;;;;;;;;;;5016208;28;20495;-92
2022/04/03 02:38:41;;;;;;;13.03;9.80;;;;;;;;;;5015615;28;20452;-92
2022/04/03 02:41:09;;;;;;;14.70;10.37;;;;;;;;;;5014250;28;20465;-93
2022/04/03 02:43:36;;;;;;;13.00;9.73;;;;;;;;;;5014574;28;20452;-90
2022/04/03 02:46:03;;;;;;;14.63;9.90;;;;;;;;;;5014604;28;20468;-87
2022/04/03 02:48:30;;;;;;;15.93;10.63;;;;;;;;;;5015621;28;20483;-88
2022/04/03 02:50:58;;;;;;;14.80;11.30;;;0.00;99.90;;;;;;5016153;28;20456;-87
2022/04/03 02:53:26;;;;;;;16.33;10.47;;;;;;;;;;5016173;28;20515;-91
2022/04/03 02:55:53;;;;;;;16.80;11.33;;;;;;;;;;5016318;28;20460;-90
2022/04/03 02:58:20;;;;;;;13.67;9.57;;;;;;;;;;5016336;28;20448;-88
2022/04/03 03:00:48;;;;;;;13.97;10.43;;;;;;;;;;5015026;28;20791;-88
2022/04/03 03:03:15;;;;;;;15.80;10.60;;;;;;;;;;5015700;28;20448;-88
2022/04/03 03:05:43;;;;;;;18.10;10.53;;;;;;;;;;5021490;28;20452;-91
2022/04/03 03:08:11;;;;;;;19.00;12.23;;;0.50;99.90;;;;;;5026936;28;20456;-90
2022/04/03 03:10:38;;;;;;;18.07;11.33;;;;;;;;;;5031923;28;20436;-88
2022/04/03 03:13:05;;;;;;;17.13;10.77;;;;;;;;;;5030264;28;20452;-87
2022/04/03 03:15:33;;;;;;;17.47;12.20;;;;;;;;;;5020603;28;20943;-93
2022/04/03 03:18:00;;;;;;;15.57;11.43;;;;;;;;;;5017010;28;20444;-90
2022/04/03 03:20:27;;;;;;;20.77;12.33;;;;;;;;;;5016946;28;20448;-92
2022/04/03 03:22:54;;;;;;;15.03;11.13;;;;;;;;;;5015477;28;20440;-93
2022/04/03 03:25:22;;;;;;;16.47;10.73;;;0.00;99.90;;;;;;5017057;28;20451;-91
2022/04/03 03:27:50;;;;;;;16.37;11.30;;;;;;;;;;5017115;28;20455;-94
2022/04/03 03:30:17;;;;;;;14.73;11.03;;;;;;;;;;5015006;28;20452;-94
2022/04/03 03:32:44;;;;;;;14.90;10.37;;;;;;;;;;5016444;28;20809;-89
2022/04/03 03:35:12;;;;;;;18.07;10.83;;;;;;;;;;5016495;28;20499;-93
2022/04/03 03:37:39;;;;;;;17.70;11.17;;;;;;;;;;5016889;28;20507;-91
2022/04/03 03:40:11;;;;;;;15.13;10.73;;;-0.20;99.90;;;;;;5016565;28;20476;-93
2022/04/03 03:42:41;;;;;;;15.80;10.40;;;0.00;99.90;;;;;;5016551;28;20563;-92
2022/04/03 03:45:09;;;;;;;15.60;10.83;;;-0.10;99.90;;;;;;5016513;28;20445;-89
2022/04/03 03:47:36;;;;;;;18.10;11.40;;;;;;;;;;5015423;28;20448;-92
2022/04/03 03:50:04;;;;;;;13.73;11.00;;;;;;;;;;4997957;28;20457;-93
2022/04/03 03:52:31;;;;;;;13.57;9.40;;;;;;;;;;4997949;28;20452;-89
2022/04/03 03:54:58;;;;;;;18.57;10.50;;;;;;;;;;4999138;28;20489;-90
2022/04/03 03:57:25;;;;;;;14.93;10.20;;;;;;;;;;5001615;28;20445;-91
2022/04/03 03:59:54;;;;;;;17.97;10.77;;;0.00;99.90;;;;;;5000351;28;20456;-93
2022/04/03 04:02:21;;;;;;;14.37;9.80;;;;;;;;;;4999674;28;20447;-86
2022/04/03 04:04:48;;;;;;;14.70;10.50;;;;;;;;;;5000630;28;20453;-89
2022/04/03 04:07:15;;;;;;;13.80;9.57;;;;;;;;;;5001025;28;20937;-93
2022/04/03 04:09:42;;;;;;;14.30;10.43;;;;;;;;;;4998468;28;20457;-88
2022/04/03 04:12:10;;;;;;;13.53;10.47;;;0.10;99.90;;;;;;4998897;28;20456;-91
2022/04/03 04:14:39;;;;;;;13.20;9.23;;;;;;;;;;4998636;28;20528;-91
2022/04/03 04:17:09;;;;;;;12.40;9.60;;;0.00;99.90;;;;;;5000181;28;20457;-92
2022/04/03 04:19:36;;;;;;;18.50;11.47;;;;;;;;;;4999213;28;21325;-92
2022/04/03 04:22:03;;;;;;;14.63;9.53;;;;;;;;;;5000597;28;20457;-93
2022/04/03 04:24:31;;;;;;;13.53;9.20;;;;;;;;;;5000844;28;20445;-89
2022/04/03 04:26:58;;;;;;;13.77;9.50;;;;;;;;;;5001201;28;20445;-91
2022/04/03 04:29:25;;;;;;;12.80;8.90;;;;;;;;;;5000433;28;20461;-87
2022/04/03 04:31:52;;;;;;;13.30;9.37;;;;;;;;;;5001707;28;20453;-91
2022/04/03 04:34:21;;;;;;;10.90;8.40;;;0.10;99.90;;;;;;5001691;28;20504;-94
2022/04/03 04:36:48;;;;;;;11.90;9.43;;;;;;;;;;5000412;28;20453;-93
2022/04/03 04:39:15;;;;;;;19.63;9.63;;;;;;;;;;5000171;28;20445;-92
2022/04/03 04:41:42;;;;;;;18.67;9.37;;;;;;;;;;5000828;28;20453;-87
2022/04/03 04:44:09;;;;;;;13.00;10.40;;;;;;;;;;5000900;28;20445;-88
2022/04/03 04:46:36;;;;;;;12.03;9.43;;;;;;;;;;5001538;28;20458;-92
2022/04/03 04:49:03;;;;;;;13.80;10.17;;;;;;;;;;5013439;28;20476;-94
2022/04/03 04:51:32;;;;;;;14.30;9.73;;;-0.10;99.90;;;;;;5020189;28;20437;-93
2022/04/03 04:53:59;;;;;;;16.80;9.43;;;;;;;;;;5019767;28;20488;-93
2022/04/03 04:56:26;;;;;;;13.70;9.60;;;;;;;;;;5021114;28;20460;-92
2022/04/03 04:58:54;;;;;;;13.97;9.60;;;;;;;;;;5020597;28;20484;-92
2022/04/03 05:01:21;;;;;;;12.07;8.87;;;;;;;;;;5020353;28;20455;-94
2022/04/03 05:03:48;;;;;;;12.00;9.80;;;;;;;;;;5020942;28;20452;-94
2022/04/03 05:06:15;;;;;;;14.20;9.77;;;;;;;;;;5019942;28;20448;-91
2022/04/03 05:08:44;;;;;;;14.50;9.87;;;-0.10;99.90;;;;;;5021539;28;20437;-91
2022/04/03 05:11:13;;;;;;;12.80;9.43;;;-0.10;99.90;;;;;;5021503;28;20444;-94
2022/04/03 05:13:40;;;;;;;13.40;10.17;;;;;;;;;;5020403;28;20446;-92
2022/04/03 05:16:07;;;;;;;11.60;8.50;;;;;;;;;;5019564;28;20445;-87
2022/04/03 05:18:36;;;;;;;12.27;9.00;;;0.00;99.90;;;;;;5021273;28;20456;-92
2022/04/03 05:21:04;;;;;;;14.60;9.30;;;-0.10;99.90;;;;;;5022735;28;20452;-92
2022/04/03 05:23:31;;;;;;;14.83;10.60;;;;;;;;;;5022763;28;20452;-91
2022/04/03 05:26:00;;;;;;;16.07;10.03;;;0.00;99.90;;;;;;5021358;28;20808;-93
2022/04/03 05:28:27;;;;;;;15.27;9.30;;;;;;;;;;5022953;28;20437;-90
2022/04/03 05:30:55;;;;;;;14.20;9.60;;;;;;;;;;5021023;28;20825;-88
2022/04/03 05:33:22;;;;;;;13.17;9.50;;;;;;;;;;5018160;28;20964;-91
2022/04/03 05:35:50;;;;;;;14.20;9.50;;;;;;;;;;5018066;28;20579;-88
2022/04/03 05:38:17;;;;;;;11.47;9.03;;;;;;;;;;4977423;28;20450;-88
2022/04/03 05:40:44;;;;;;;13.13;10.00;;;;;;;;;;4982782;28;20474;-86
2022/04/03 05:43:12;;;;;;;15.60;10.17;;;0.30;99.90;;;;;;4986381;28;20531;-92
2022/04/03 05:45:40;;;;;;;16.40;10.67;;;;;;;;;;4987964;28;20457;-90
2022/04/03 05:48:07;;;;;;;11.87;9.27;;;0.10;99.90;;;;;;4990208;28;20486;-87
2022/04/03 05:50:37;;;;;;;12.97;9.67;;;;;;;;;;4983821;28;20454;-88
2022/04/03 05:53:04;;;;;;;13.70;9.30;;;;;;;;;;4975607;28;20545;-86
2022/04/03 05:55:31;;;;;;;14.70;9.20;;;;;;;;;;4978903;28;20496;-90
2022/04/03 05:57:58;;;;;;;13.87;10.20;;;;;;;;;;5015102;28;20439;-86
2022/04/03 06:00:27;;;;;;;13.33;9.40;;;0.40;99.90;;;;;;5013548;28;20940;-85
2022/04/03 06:02:55;;;;;;;15.30;9.40;;;0.50;99.90;;;;;;5014882;28;20460;-88
2022/04/03 06:05:25;;;;;;;9.13;7.60;;;0.40;99.90;;;;;;5018095;28;20448;-91
2022/04/03 06:07:52;;;;;;;13.00;9.30;;;;;;;;;;5018859;28;20456;-92
2022/04/03 06:10:42;;;;;;;16.13;9.90;;;0.30;99.90;;;;;;5020175;28;20456;-94
2022/04/03 06:13:12;;;;;;;10.83;8.13;;;0.60;99.90;;;;;;5022079;28;20502;-94
2022/04/03 06:15:42;;;;;;;10.33;7.93;;;0.60;99.90;;;;;;5022533;28;20476;-91
2022/04/03 06:18:10;;;;;;;21.53;10.40;;;0.80;99.90;;;;;;5023632;28;20824;-93
2022/04/03 06:20:38;;;;;;;19.80;9.50;;;;;;;;;;5027754;28;20445;-93
2022/04/03 06:23:11;;;;;;;11.73;8.27;;;0.90;99.90;;;;;;5027968;28;20455;-92
2022/04/03 06:25:38;;;;;;;11.40;7.57;;;;;;;;;;5031737;28;20452;-90
2022/04/03 06:28:05;;;;;;;10.37;8.07;;;1.80;99.90;;;;;;5028829;28;20460;-92
2022/04/03 06:30:32;;;;;;;11.53;7.87;;;;;;;;;;5016599;28;20444;-92
2022/04/03 06:33:01;;;;;;;12.30;8.27;;;1.10;99.90;;;;;;5013318;28;20990;-92
2022/04/03 06:35:28;;;;;;;12.20;8.40;;;;;;;;;;5013333;28;20491;-92
2022/04/03 06:37:55;;;;;;;9.70;7.83;;;;;;;;;;5018003;28;20437;-91
2022/04/03 06:40:23;;;;;;;9.50;7.30;;;;;;;;;;5017360;28;20468;-93
2022/04/03 06:42:51;;;;;;;11.67;8.13;;;1.50;99.90;;;;;;5019259;28;20452;-94
2022/04/03 06:45:18;;;;;;;10.50;8.37;;;;;;;;;;5015773;28;20452;-93
2022/04/03 06:47:46;;;;;;;9.37;7.70;;;;;;;;;;5019229;28;20441;-92
2022/04/03 06:50:14;;;;;;;10.00;7.90;;;1.90;99.90;;;;;;5017340;28;20445;-94
2022/04/03 06:52:42;;;;;;;10.63;7.50;;;;;;;;;;5016638;28;20440;-91
2022/04/03 06:55:09;;;;;;;10.70;7.80;;;2.00;99.90;;;;;;5016597;28;20476;-91
2022/04/03 06:57:37;;;;;;;14.23;9.03;;;;;;;;;;5016932;28;20459;-94
2022/04/03 07:00:05;;;;;;;10.00;7.93;;;2.00;99.90;;;;;;5028001;28;20452;-93
2022/04/03 07:02:33;;;;;;;10.90;8.70;;;;;;;;;;5016540;28;20472;-91
2022/04/03 07:05:00;;;;;;;10.20;8.23;;;;;;;;;;5015886;28;20850;-92
2022/04/03 07:07:28;;;;;;;9.27;6.50;;;2.60;99.90;;;;;;5020107;28;20429;-93
2022/04/03 07:09:55;;;;;;;7.93;6.60;;;;;;;;;;5019319;28;20462;-91
2022/04/03 07:12:24;;;;;;;10.17;6.40;;;;;;;;;;5021370;28;20449;-91
2022/04/03 07:14:52;;;;;;;7.33;5.50;;;;;;;;;;5017559;28;21041;-91
2022/04/03 07:17:19;;;;;;;7.40;5.33;;;;;;;;;;5017252;28;20444;-93
2022/04/03 07:19:46;;;;;;;9.27;6.70;;;;;;;;;;5022025;28;20455;-94
2022/04/03 07:22:13;;;;;;;7.73;5.90;;;;;;;;;;5017993;28;20822;-93
2022/04/03 07:24:41;;;;;;;8.00;6.23;;;;;;;;;;5020722;28;20433;-92
2022/04/03 07:27:09;;;;;;;7.10;5.70;;;;;;;;;;5019335;28;20521;-93
2022/04/03 07:29:36;;;;;;;11.53;10.47;;;;;;;;;;5021214;28;20844;-92
2022/04/03 07:32:04;;;;;;;8.00;7.20;;;2.80;99.90;;;;;;5022454;28;20448;-92
2022/04/03 07:34:31;;;;;;;10.10;8.40;;;2.70;99.90;;;;;;5021068;28;20448;-94
2022/04/03 07:36:58;;;;;;;7.83;5.43;;;;;;;;;;5021265;28;20452;-90
2022/04/03 07:39:26;;;;;;;5.80;5.20;;;;;;;;;;5019811;28;20468;-91
2022/04/03 07:41:54;;;;;;;6.57;5.80;;;3.40;99.90;;;;;;5019131;28;20432;-89
2022/04/03 07:44:21;;;;;;;9.77;7.40;;;;;;;;;;5019604;28;20789;-89
2022/04/03 07:46:48;;;;;;;6.80;5.73;;;;;;;;;;5019137;28;20459;-89
2022/04/03 07:49:16;;;;;;;5.83;5.10;;;;;;;;;;5018743;28;20484;-91
2022/04/03 07:51:43;;;;;;;7.83;5.87;;;;;;;;;;5019709;28;20444;-93
2022/04/03 07:54:10;;;;;;;7.80;5.50;;;;;;;;;;5019081;28;20455;-93
2022/04/03 07:56:37;;;;;;;5.63;5.10;;;;;;;;;;5019376;28;20515;-92
2022/04/03 07:59:07;;;;;;;7.10;5.17;;;4.20;99.90;;;;;;5019545;28;20453;-90
2022/04/03 08:01:34;;;;;;;6.50;5.13;;;;;;;;;;5019513;28;20520;-91
2022/04/03 08:04:01;;;;;;;6.07;5.30;;;;;;;;;;5019627;28;20866;-91
2022/04/03 08:06:28;;;;;;;6.17;5.37;;;;;;;;;;5018244;28;20495;-91
2022/04/03 08:08:56;;;;;;;5.80;4.97;;;;;;;;;;5018426;28;20455;-89
2022/04/03 08:11:23;;;;;;;9.23;8.40;;;;;;;;;;5019177;28;20456;-87
2022/04/03 08:13:51;;;;;;;6.30;5.70;;;;;;;;;;5019728;28;20472;-91
2022/04/03 08:16:19;;;;;;;6.00;5.23;;;3.70;99.90;;;;;;5018032;28;20499;-90
2022/04/03 08:18:46;;;;;;;7.00;5.60;;;;;;;;;;5018431;28;20445;-87
2022/04/03 08:21:13;;;;;;;13.30;7.00;;;;;;;;;;5018003;28;20440;-91
2022/04/03 08:23:40;;;;;;;8.13;6.50;;;;;;;;;;5018221;28;20787;-89
2022/04/03 08:26:07;;;;;;;7.57;6.63;;;;;;;;;;5018537;28;20452;-86
2022/04/03 08:28:35;;;;;;;7.37;5.40;;;;;;;;;;5017910;28;20459;-88
2022/04/03 08:31:02;;;;;;;9.50;6.13;;;;;;;;;;5016825;28;20991;-90
2022/04/03 08:33:30;;;;;;;8.67;7.20;;;3.70;99.90;;;;;;5018572;28;20456;-89
2022/04/03 08:35:57;;;;;;;8.00;7.13;;;;;;;;;;5028454;28;20475;-90
2022/04/03 08:38:24;;;;;;;8.40;6.80;;;;;;;;;;5040448;28;20463;-89
2022/04/03 08:40:51;;;;;;;8.23;7.33;;;;;;;;;;5021090;28;20432;-91
2022/04/03 08:43:19;;;;;;;9.53;7.70;;;;;;;;;;5018414;28;20440;-88
2022/04/03 08:45:46;;;;;;;7.00;6.30;;;;;;;;;;5015081;28;20464;-91
2022/04/03 08:48:13;;;;;;;7.37;6.40;;;;;;;;;;5019058;28;20575;-91
2022/04/03 08:50:42;;;;;;;14.37;5.87;;;3.90;99.90;;;;;;5020518;28;20456;-91
2022/04/03 08:53:10;;;;;;;7.73;6.67;;;;;;;;;;5020280;28;20455;-90
2022/04/03 08:55:37;;;;;;;8.57;6.70;;;;;;;;;;5018952;28;20895;-90
2022/04/03 08:58:04;;;;;;;8.17;5.70;;;4.20;99.90;;;;;;5020629;28;20459;-91
2022/04/03 09:00:32;;;;;;;9.40;8.43;;;4.40;99.90;;;;;;5018760;28;20467;-92
2022/04/03 09:03:00;;;;;;;9.23;5.90;;;;;;;;;;5020586;28;20445;-91
2022/04/03 09:05:38;;;;;;;6.93;5.90;;;5.40;99.90;;;;;;5020060;28;20452;-89
2022/04/03 09:08:08;;;;;;;25.67;23.13;;;5.20;99.90;;;;;;5019426;28;20456;-91
2022/04/03 09:10:36;;;;;;;13.67;10.30;;;;;;;;;;5020568;28;20649;-91
2022/04/03 09:13:03;;;;;;;15.73;11.63;;;;;;;;;;5023177;28;20452;-89
2022/04/03 09:15:31;;;;;;;21.60;9.90;;;4.90;99.90;;;;;;5015968;28;20507;-90
2022/04/03 09:18:00;;;;;;;9.30;8.37;;;4.40;99.90;;;;;;5016151;28;20448;-91
2022/04/03 09:20:29;;;;;;;10.30;8.30;;;3.90;99.90;;;;;;5016816;28;20464;-89
2022/04/03 09:22:59;;;;;;;10.43;7.40;;;3.90;99.90;;;;;;5013253;28;20836;-90
2022/04/03 09:25:29;;;;;;;11.13;7.73;;;4.00;99.90;;;;;;5014415;28;20462;-90
2022/04/03 09:27:58;;;;;;;9.27;6.97;;;3.90;99.90;;;;;;5029715;28;20935;-89
2022/04/03 09:30:30;;;;;;;6.33;5.67;;;4.40;99.90;;;;;;5037513;28;20444;-90
2022/04/03 09:32:58;;;;;;;12.27;8.37;;;4.40;99.90;;;;;;5042852;28;20444;-91
2022/04/03 09:35:27;;;;;;;9.30;6.20;;;4.40;99.90;;;;;;5043707;28;20554;-90
2022/04/03 09:38:14;;;;;;;5.30;4.50;;;4.00;99.90;;;;;;5019872;28;20526;-90
2022/04/03 09:40:46;;;;;;;6.43;5.50;;;3.80;99.90;;;;;;5037466;28;20518;-90
2022/04/03 09:43:14;;;;;;;5.90;5.00;;;3.30;99.90;;;;;;5035896;28;20501;-89
2022/04/03 09:45:45;;;;;;;6.00;5.40;;;3.30;99.90;;;;;;5034922;28;20456;-89
2022/04/03 09:48:20;;;;;;;8.40;5.70;;;3.40;99.90;;;;;;5035944;28;20482;-90
2022/04/03 09:51:03;;;;;;;7.40;4.90;;;3.30;99.90;;;;;;5036182;28;20462;-89
2022/04/03 09:53:30;;;;;;;8.10;6.53;;;;;;;;;;5035431;28;20796;-89
2022/04/03 09:55:59;;;;;;;16.20;13.30;;;3.40;99.90;;;;;;5036100;28;20825;-90
2022/04/03 09:58:26;;;;;;;8.90;6.60;;;;;;;;;;5036370;28;20482;-90
2022/04/03 10:00:53;;;;;;;6.73;5.47;;;;;;;;;;5035176;28;20456;-89
2022/04/03 10:03:20;;;;;;;5.97;5.40;;;;;;;;;;5035919;28;20451;-90
2022/04/03 10:05:48;;;;;;;6.87;5.83;;;;;;;;;;5031135;28;20443;-94
2022/04/03 10:08:15;;;;;;;6.53;5.17;;;;;;;;;;5021064;28;20475;-92
2022/04/03 10:10:42;;;;;;;6.13;5.53;;;;;;;;;;5017076;28;20484;-94
2022/04/03 10:13:12;;;;;;;19.07;14.00;;;;;;;;;;5018510;28;20457;-95
2022/04/03 10:15:39;;;;;;;8.20;6.60;;;;;;;;;;5027266;28;20525;-93
2022/04/03 10:18:07;;;;;;;5.40;3.83;;;;;;;;;;5028018;28;20935;-92
2022/04/03 10:20:37;;;;;;;8.10;5.33;;;3.40;99.90;;;;;;5016968;28;20460;-95
2022/04/03 10:23:08;;;;;;;8.77;5.60;;;3.10;99.90;;;;;;5017419;28;20457;-94
2022/04/03 10:25:41;;;;;;;4.70;4.20;;;2.90;99.90;;;;;;5023916;28;20501;-90
2022/04/03 10:28:10;;;;;;;7.40;4.53;;;2.70;99.90;;;;;;5038669;28;20447;-92
2022/04/03 10:30:39;;;;;;;5.50;4.63;;;2.60;99.90;;;;;;5032543;28;20451;-94
2022/04/03 10:33:19;;;;;;;5.10;4.60;;;2.70;99.90;;;;;;5028119;28;20547;-93
2022/04/03 10:35:48;;;;;;;6.53;5.20;;;2.50;99.90;;;;;;5015505;28;20491;-94
2022/04/03 10:38:15;;;;;;;5.90;4.90;;;;;;;;;;5013650;28;20488;-93
2022/04/03 10:40:57;;;;;;;6.00;4.57;;;2.50;99.90;;;;;;5017518;28;20451;-93
2022/04/03 10:43:29;;;;;;;8.10;5.40;;;2.40;99.90;;;;;;5016587;28;20440;-93
2022/04/03 10:45:58;;;;;;;5.83;5.33;;;2.40;99.90;;;;;;5015978;28;20444;-92
2022/04/03 10:48:34;;;;;;;6.60;5.43;;;;;;;;;;5021457;28;20475;-94
2022/04/03 10:51:07;;;;;;;6.10;5.10;;;2.40;99.90;;;;;;5033618;28;20451;-94
2022/04/03 10:53:36;;;;;;;8.63;5.77;;;2.40;99.90;;;;;;5038598;28;20459;-94
2022/04/03 10:56:07;;;;;;;6.27;4.60;;;2.30;99.90;;;;;;5034275;28;20487;-90
2022/04/03 10:58:44;;;;;;;7.00;4.07;;;2.40;99.90;;;;;;5035645;28;20462;-91
2022/04/03 11:01:24;;;;;;;5.47;4.40;;;2.30;99.90;;;;;;5037624;28;20446;-92
2022/04/03 11:03:57;;;;;;;5.27;4.00;;;2.10;99.90;;;;;;5033371;28;20443;-91
2022/04/03 11:06:32;;;;;;;6.37;4.00;;;2.30;99.90;;;;;;5037590;28;20501;-94
2022/04/03 11:09:11;;;;;;;5.50;4.77;;;2.50;99.90;;;;;;5036775;28;20431;-92
2022/04/03 11:11:44;;;;;;;4.50;3.27;;;2.20;99.90;;;;;;5031039;28;20455;-92
2022/04/03 11:14:13;;;;;;;3.90;3.20;;;2.40;99.90;;;;;;5050055;28;20490;-90
2022/04/03 11:16:57;;;;;;;5.47;4.20;;;2.40;99.90;;;;;;5046493;28;20491;-93
2022/04/03 11:19:43;;;;;;;4.60;4.17;;;2.90;99.90;;;;;;5030799;28;20452;-93
2022/04/03 11:22:13;;;;;;;7.47;4.70;;;3.20;99.90;;;;;;5031526;28;20451;-92
2022/04/03 11:24:40;;;;;;;4.60;4.10;;;;;;;;;;5032729;28;20813;-93
2022/04/03 11:27:09;;;;;;;4.87;4.20;;;3.80;99.90;;;;;;5034482;28;20431;-91
2022/04/03 11:29:38;;;;;;;8.53;4.80;;;3.80;99.90;;;;;;4977436;28;20450;-94
2022/04/03 11:32:16;;;;;;;4.90;4.10;;;4.00;99.90;;;;;;4982905;28;20483;-94
2022/04/03 11:34:43;;;;;;;6.03;4.80;;;;;;;;;;4978387;28;20468;-93
2022/04/03 11:37:13;;;;;;;11.10;6.93;;;;;;;;;;4977107;28;20493;-94
2022/04/03 11:39:41;;;;;;;8.23;5.90;;;4.20;99.90;;;;;;4958792;28;20478;-93
2022/04/03 11:42:10;;;;;;;10.00;5.63;;;4.40;99.90;;;;;;4957254;29;20451;-94
2022/04/03 11:44:41;;;;;;;43.27;22.60;;;;;;;;;;4958284;29;20463;-91
2022/04/03 11:47:19;;;;;;;7.33;5.70;;;6.30;99.90;;;;;;4937228;28;20459;-92
2022/04/03 11:49:47;;;;;;;5.10;4.50;;;;;;;;;;4999892;28;20496;-92
2022/04/03 11:52:15;;;;;;;4.73;4.33;;;;;;;;;;4999376;28;20460;-96
2022/04/03 11:54:55;;;;;;;3.50;3.13;;;5.50;99.90;;;;;;4993884;28;20457;-91
2022/04/03 11:57:22;;;;;;;4.43;3.43;;;;;;;;;;5010600;28;20493;-89
2022/04/03 11:59:54;;;;;;;3.50;3.20;;;4.10;99.90;;;;;;5006219;28;20453;-88
2022/04/03 12:02:22;;;;;;;4.83;4.33;;;;;;;;;;5004513;28;20446;-88
2022/04/03 12:04:49;;;;;;;6.87;6.07;;;3.60;99.90;;;;;;5002028;28;20457;-89
2022/04/03 12:07:16;;;;;;;6.37;5.27;;;;;;;;;;5000939;28;20429;-88
2022/04/03 12:09:44;;;;;;;6.77;5.57;;;;;;;;;;5002530;28;20480;-88
2022/04/03 12:12:11;;;;;;;4.60;4.20;;;;;;;;;;5006079;28;20533;-92
2022/04/03 12:14:41;;;;;;;5.13;4.17;;;3.10;99.90;;;;;;5006217;28;20445;-92
2022/04/03 12:17:11;;;;;;;4.23;3.57;;;3.20;99.90;;;;;;5013492;28;20482;-88
2022/04/03 12:19:40;;;;;;;9.33;6.40;;;2.90;99.90;;;;;;5049168;28;20436;-91
2022/04/03 12:22:10;;;;;;;18.30;9.43;;;3.10;99.90;;;;;;5049087;28;20534;-85
2022/04/03 12:24:39;;;;;;;7.73;6.10;;;3.00;99.90;;;;;;5049009;28;20451;-85
2022/04/03 12:27:12;;;;;;;7.50;4.87;;;2.80;99.90;;;;;;5044527;28;20517;-89
2022/04/03 12:29:40;;;;;;;4.90;4.20;;;2.80;99.90;;;;;;5046538;28;20463;-89
2022/04/03 12:32:10;;;;;;;5.87;3.67;;;2.70;99.90;;;;;;5048742;28;20455;-88
2022/04/03 12:34:40;;;;;;;5.97;4.33;;;2.80;99.90;;;;;;5051445;28;20444;-91
2022/04/03 12:37:08;;;;;;;6.77;4.10;;;2.80;99.90;;;;;;5046084;28;20491;-89
2022/04/03 12:39:43;;;;;;;6.73;5.00;;;2.80;99.90;;;;;;5049481;28;20451;-92
2022/04/03 12:42:19;;;;;;;5.70;4.50;;;3.00;99.90;;;;;;5046585;28;20451;-92
2022/04/03 12:44:51;;;;;;;5.27;3.87;;;2.80;99.90;;;;;;5042904;28;20448;-92
2022/04/03 12:47:21;;;;;;;5.93;4.90;;;2.60;99.90;;;;;;5036436;28;20448;-93
2022/04/03 12:49:49;;;;;;;5.43;4.00;;;2.60;99.90;;;;;;4995190;28;20485;-92
2022/04/03 12:52:21;;;;;;;4.50;3.77;;;2.60;99.90;;;;;;4992916;28;20453;-92
2022/04/03 12:54:48;;;;;;;5.77;3.87;;;;;;;;;;4989038;28;21000;-91
2022/04/03 13:00:14;;;;;;;4.60;3.90;;;3.00;99.90;;;;;;4995003;28;20432;-92
2022/04/03 13:02:44;;;;;;;8.10;4.10;;;3.20;99.90;;;;;;4990419;28;20826;-90
2022/04/03 13:05:14;;;;;;;5.23;4.33;;;3.40;99.90;;;;;;4992126;28;20465;-90
2022/04/03 13:07:41;;;;;;;6.77;4.40;;;;;;;;;;5011762;28;20968;-91
2022/04/03 13:10:15;;;;;;;4.90;3.80;;;3.50;99.90;;;;;;5037168;28;20951;-91
2022/04/03 13:12:42;;;;;;;4.07;3.67;;;;;;;;;;5032771;28;20502;-93
2022/04/03 13:15:09;;;;;;;4.50;4.00;;;;;;;;;;5033221;28;20808;-92
2022/04/03 13:17:37;;;;;;;5.80;4.70;;;;;;;;;;5037566;28;20487;-90
2022/04/03 13:20:06;;;;;;;9.37;6.90;;;4.50;99.90;;;;;;5034237;28;20530;-93
2022/04/03 13:22:33;;;;;;;8.60;5.63;;;;;;;;;;5037319;28;20447;-92
2022/04/03 13:25:01;;;;;;;4.80;4.13;;;;;;;;;;5034337;28;20827;-91
2022/04/03 13:27:28;;;;;;;4.93;4.50;;;;;;;;;;5033204;28;20459;-92
2022/04/03 13:29:55;;;;;;;4.67;4.20;;;;;;;;;;5035233;28;20447;-92
2022/04/03 13:32:22;;;;;;;5.03;3.87;;;;;;;;;;5032841;28;20490;-91
2022/04/03 13:34:49;;;;;;;9.13;5.23;;;;;;;;;;5036644;28;20462;-90
2022/04/03 13:37:18;;;;;;;5.30;4.23;;;3.20;99.90;;;;;;5034741;28;20491;-93
2022/04/03 13:39:45;;;;;;;6.63;5.07;;;;;;;;;;5032077;28;20447;-94
2022/04/03 13:42:13;;;;;;;5.50;4.83;;;;;;;;;;5032931;28;20447;-91
2022/04/03 13:44:40;;;;;;;15.40;12.37;;;;;;;;;;5035399;28;20448;-91
2022/04/03 13:47:09;;;;;;;17.47;9.37;;;;;;;;;;5036798;28;20939;-92
2022/04/03 13:49:37;;;;;;;4.13;3.73;;;;;;;;;;5040839;28;20542;-94
2022/04/03 13:52:04;;;;;;;5.67;4.07;;;;;;;;;;5039963;28;20501;-92
2022/04/03 13:54:32;;;;;;;6.23;4.40;;;2.50;99.90;;;;;;5039277;28;20451;-90
2022/04/03 13:56:59;;;;;;;9.93;8.27;;;;;;;;;;5032946;28;20490;-93
2022/04/03 13:59:26;;;;;;;7.80;4.60;;;;;;;;;;5042436;28;20432;-89